sensor_id;sensor_type;location;lat;lon;timestamp;P1;durP1;ratioP1;P2;durP2;ratioP2
36829;SDS011;22767;47.328;9.640;2023-04-23T00:00:28;5.72;;;2.85;;
36829;SDS011;22767;47.328;9.640;2023-04-23T00:02:54;5.72;;;2.58;;
36829;SDS011;22767;47.328;9.640;2023-04-23T00:05:23;5.03;;;2.53;;
36829;SDS011;22767;47.328;9.640;2023-04-23T00:07:52;4.07;;;2.35;;
36829;SDS011;22767;47.328;9.640;2023-04-23T00:10:18;5.43;;;2.63;;
36829;SDS011;22767;47.328;9.640;2023-04-23T00:12:45;5.00;;;2.38;;
36829;SDS011;22767;47.328;9.640;2023-04-23T00:15:11;5.82;;;2.75;;
36829;SDS011;22767;47.328;9.640;2023-04-23T00:17:44;3.47;;;2.53;;
36829;SDS011;22767;47.328;9.640;2023-04-23T00:20:14;6.05;;;2.78;;
36829;SDS011;22767;47.328;9.640;2023-04-23T00:22:41;5.38;;;2.63;;
36829;SDS011;22767;47.328;9.640;2023-04-23T00:25:08;5.22;;;2.55;;
36829;SDS011;22767;47.328;9.640;2023-04-23T00:27:34;7.72;;;2.72;;
36829;SDS011;22767;47.328;9.640;2023-04-23T00:30:01;3.35;;;2.25;;
36829;SDS011;22767;47.328;9.640;2023-04-23T00:32:27;4.30;;;3.00;;
36829;SDS011;22767;47.328;9.640;2023-04-23T00:35:00;7.88;;;2.72;;
36829;SDS011;22767;47.328;9.640;2023-04-23T00:37:26;6.75;;;2.97;;
36829;SDS011;22767;47.328;9.640;2023-04-23T00:39:52;6.38;;;3.20;;
36829;SDS011;22767;47.328;9.640;2023-04-23T00:42:18;5.50;;;2.50;;
36829;SDS011;22767;47.328;9.640;2023-04-23T00:44:45;4.32;;;2.38;;
36829;SDS011;22767;47.328;9.640;2023-04-23T00:47:11;4.95;;;2.60;;
36829;SDS011;22767;47.328;9.640;2023-04-23T00:49:38;4.38;;;2.60;;
36829;SDS011;22767;47.328;9.640;2023-04-23T00:52:06;3.20;;;2.00;;
36829;SDS011;22767;47.328;9.640;2023-04-23T00:54:32;3.65;;;2.45;;
36829;SDS011;22767;47.328;9.640;2023-04-23T00:56:58;4.72;;;2.92;;
36829;SDS011;22767;47.328;9.640;2023-04-23T00:59:24;5.63;;;3.15;;
36829;SDS011;22767;47.328;9.640;2023-04-23T01:01:51;2.35;;;2.15;;
36829;SDS011;22767;47.328;9.640;2023-04-23T01:04:23;3.78;;;2.58;;
36829;SDS011;22767;47.328;9.640;2023-04-23T01:06:58;4.55;;;2.97;;
36829;SDS011;22767;47.328;9.640;2023-04-23T01:09:25;6.47;;;2.50;;
36829;SDS011;22767;47.328;9.640;2023-04-23T01:11:56;5.50;;;2.30;;
36829;SDS011;22767;47.328;9.640;2023-04-23T01:14:23;3.42;;;2.45;;
36829;SDS011;22767;47.328;9.640;2023-04-23T01:16:52;3.67;;;2.47;;
36829;SDS011;22767;47.328;9.640;2023-04-23T01:19:18;6.85;;;2.50;;
36829;SDS011;22767;47.328;9.640;2023-04-23T01:21:45;3.28;;;2.15;;
36829;SDS011;22767;47.328;9.640;2023-04-23T01:24:18;4.25;;;2.42;;
36829;SDS011;22767;47.328;9.640;2023-04-23T01:26:44;4.38;;;1.98;;
36829;SDS011;22767;47.328;9.640;2023-04-23T01:29:10;6.93;;;2.75;;
36829;SDS011;22767;47.328;9.640;2023-04-23T01:31:37;3.63;;;2.88;;
36829;SDS011;22767;47.328;9.640;2023-04-23T01:34:04;4.85;;;3.90;;
36829;SDS011;22767;47.328;9.640;2023-04-23T01:36:30;4.05;;;3.17;;
36829;SDS011;22767;47.328;9.640;2023-04-23T01:38:57;5.80;;;2.85;;
36829;SDS011;22767;47.328;9.640;2023-04-23T01:41:23;5.00;;;3.10;;
36829;SDS011;22767;47.328;9.640;2023-04-23T01:43:56;4.88;;;3.50;;
36829;SDS011;22767;47.328;9.640;2023-04-23T01:46:22;8.20;;;3.88;;
36829;SDS011;22767;47.328;9.640;2023-04-23T01:48:48;5.65;;;3.53;;
36829;SDS011;22767;47.328;9.640;2023-04-23T01:51:14;5.85;;;3.50;;
36829;SDS011;22767;47.328;9.640;2023-04-23T01:53:41;4.32;;;3.58;;
36829;SDS011;22767;47.328;9.640;2023-04-23T01:56:07;6.65;;;4.65;;
36829;SDS011;22767;47.328;9.640;2023-04-23T01:58:41;6.82;;;4.50;;
36829;SDS011;22767;47.328;9.640;2023-04-23T02:01:07;7.70;;;4.50;;
36829;SDS011;22767;47.328;9.640;2023-04-23T02:03:35;7.65;;;4.53;;
36829;SDS011;22767;47.328;9.640;2023-04-23T02:06:02;7.05;;;4.32;;
36829;SDS011;22767;47.328;9.640;2023-04-23T02:08:29;5.55;;;4.70;;
36829;SDS011;22767;47.328;9.640;2023-04-23T02:11:03;6.18;;;4.30;;
36829;SDS011;22767;47.328;9.640;2023-04-23T02:13:30;5.85;;;4.20;;
36829;SDS011;22767;47.328;9.640;2023-04-23T02:16:03;5.63;;;4.38;;
36829;SDS011;22767;47.328;9.640;2023-04-23T02:18:29;5.05;;;3.72;;
36829;SDS011;22767;47.328;9.640;2023-04-23T02:20:55;5.80;;;3.40;;
36829;SDS011;22767;47.328;9.640;2023-04-23T02:23:23;6.85;;;3.30;;
36829;SDS011;22767;47.328;9.640;2023-04-23T02:25:52;5.47;;;3.30;;
36829;SDS011;22767;47.328;9.640;2023-04-23T02:28:18;4.50;;;3.20;;
36829;SDS011;22767;47.328;9.640;2023-04-23T02:30:44;3.90;;;3.08;;
36829;SDS011;22767;47.328;9.640;2023-04-23T02:33:11;5.60;;;3.20;;
36829;SDS011;22767;47.328;9.640;2023-04-23T02:35:38;3.38;;;3.08;;
36829;SDS011;22767;47.328;9.640;2023-04-23T02:38:05;6.80;;;3.00;;
36829;SDS011;22767;47.328;9.640;2023-04-23T02:40:31;4.05;;;2.55;;
36829;SDS011;22767;47.328;9.640;2023-04-23T02:42:57;2.97;;;2.50;;
36829;SDS011;22767;47.328;9.640;2023-04-23T02:45:23;4.85;;;2.65;;
36829;SDS011;22767;47.328;9.640;2023-04-23T02:47:49;4.03;;;2.60;;
36829;SDS011;22767;47.328;9.640;2023-04-23T02:50:17;4.90;;;2.53;;
36829;SDS011;22767;47.328;9.640;2023-04-23T02:52:43;3.28;;;2.60;;
36829;SDS011;22767;47.328;9.640;2023-04-23T02:55:09;4.10;;;2.63;;
36829;SDS011;22767;47.328;9.640;2023-04-23T02:57:35;3.47;;;2.70;;
36829;SDS011;22767;47.328;9.640;2023-04-23T03:00:02;7.43;;;3.55;;
36829;SDS011;22767;47.328;9.640;2023-04-23T03:02:37;3.25;;;2.50;;
36829;SDS011;22767;47.328;9.640;2023-04-23T03:07:30;2.50;;;2.30;;
36829;SDS011;22767;47.328;9.640;2023-04-23T03:09:56;3.45;;;2.67;;
36829;SDS011;22767;47.328;9.640;2023-04-23T03:12:22;4.35;;;2.70;;
36829;SDS011;22767;47.328;9.640;2023-04-23T03:14:48;4.30;;;3.15;;
36829;SDS011;22767;47.328;9.640;2023-04-23T03:17:14;4.43;;;3.30;;
36829;SDS011;22767;47.328;9.640;2023-04-23T03:19:40;3.33;;;2.90;;
36829;SDS011;22767;47.328;9.640;2023-04-23T03:22:06;3.90;;;3.28;;
36829;SDS011;22767;47.328;9.640;2023-04-23T03:24:33;4.68;;;3.03;;
36829;SDS011;22767;47.328;9.640;2023-04-23T03:26:59;3.22;;;2.78;;
36829;SDS011;22767;47.328;9.640;2023-04-23T03:29:25;3.78;;;3.20;;
36829;SDS011;22767;47.328;9.640;2023-04-23T03:31:52;4.10;;;3.35;;
36829;SDS011;22767;47.328;9.640;2023-04-23T03:34:18;6.78;;;3.42;;
36829;SDS011;22767;47.328;9.640;2023-04-23T03:36:44;4.80;;;3.20;;
36829;SDS011;22767;47.328;9.640;2023-04-23T03:39:12;5.32;;;3.80;;
36829;SDS011;22767;47.328;9.640;2023-04-23T03:41:45;5.07;;;3.10;;
36829;SDS011;22767;47.328;9.640;2023-04-23T03:44:11;6.22;;;4.00;;
36829;SDS011;22767;47.328;9.640;2023-04-23T03:46:37;4.68;;;3.80;;
36829;SDS011;22767;47.328;9.640;2023-04-23T03:49:03;6.18;;;3.40;;
36829;SDS011;22767;47.328;9.640;2023-04-23T03:51:29;5.60;;;3.88;;
36829;SDS011;22767;47.328;9.640;2023-04-23T03:53:55;4.22;;;3.58;;
36829;SDS011;22767;47.328;9.640;2023-04-23T03:56:22;4.43;;;3.53;;
36829;SDS011;22767;47.328;9.640;2023-04-23T03:58:48;4.78;;;3.78;;
36829;SDS011;22767;47.328;9.640;2023-04-23T04:01:14;5.95;;;4.63;;
36829;SDS011;22767;47.328;9.640;2023-04-23T04:03:40;6.28;;;4.22;;
36829;SDS011;22767;47.328;9.640;2023-04-23T04:06:06;5.85;;;4.32;;
36829;SDS011;22767;47.328;9.640;2023-04-23T04:08:32;4.35;;;3.45;;
36829;SDS011;22767;47.328;9.640;2023-04-23T04:10:58;5.05;;;3.75;;
36829;SDS011;22767;47.328;9.640;2023-04-23T04:13:24;3.50;;;3.20;;
36829;SDS011;22767;47.328;9.640;2023-04-23T04:15:50;5.15;;;3.50;;
36829;SDS011;22767;47.328;9.640;2023-04-23T04:18:23;5.97;;;4.53;;
36829;SDS011;22767;47.328;9.640;2023-04-23T04:20:49;5.57;;;4.35;;
36829;SDS011;22767;47.328;9.640;2023-04-23T04:23:16;4.13;;;3.40;;
36829;SDS011;22767;47.328;9.640;2023-04-23T04:25:42;3.65;;;3.15;;
36829;SDS011;22767;47.328;9.640;2023-04-23T04:28:09;3.95;;;3.05;;
36829;SDS011;22767;47.328;9.640;2023-04-23T04:30:36;4.07;;;3.00;;
36829;SDS011;22767;47.328;9.640;2023-04-23T04:33:02;3.83;;;3.05;;
36829;SDS011;22767;47.328;9.640;2023-04-23T04:35:28;3.85;;;3.03;;
36829;SDS011;22767;47.328;9.640;2023-04-23T04:37:55;4.95;;;2.90;;
36829;SDS011;22767;47.328;9.640;2023-04-23T04:40:22;2.50;;;2.25;;
36829;SDS011;22767;47.328;9.640;2023-04-23T04:42:50;3.50;;;2.95;;
36829;SDS011;22767;47.328;9.640;2023-04-23T04:45:17;3.47;;;2.28;;
36829;SDS011;22767;47.328;9.640;2023-04-23T04:47:43;2.50;;;2.30;;
36829;SDS011;22767;47.328;9.640;2023-04-23T04:50:16;3.60;;;2.00;;
36829;SDS011;22767;47.328;9.640;2023-04-23T04:52:42;2.90;;;2.38;;
36829;SDS011;22767;47.328;9.640;2023-04-23T04:55:08;2.70;;;2.17;;
36829;SDS011;22767;47.328;9.640;2023-04-23T04:57:34;2.25;;;2.03;;
36829;SDS011;22767;47.328;9.640;2023-04-23T05:00:01;3.85;;;2.30;;
36829;SDS011;22767;47.328;9.640;2023-04-23T05:02:29;2.80;;;1.85;;
36829;SDS011;22767;47.328;9.640;2023-04-23T05:04:55;3.65;;;1.73;;
36829;SDS011;22767;47.328;9.640;2023-04-23T05:07:22;2.95;;;1.95;;
36829;SDS011;22767;47.328;9.640;2023-04-23T05:09:48;2.25;;;1.80;;
36829;SDS011;22767;47.328;9.640;2023-04-23T05:12:14;4.13;;;1.90;;
36829;SDS011;22767;47.328;9.640;2023-04-23T05:14:40;2.75;;;1.80;;
36829;SDS011;22767;47.328;9.640;2023-04-23T05:17:06;3.92;;;1.90;;
36829;SDS011;22767;47.328;9.640;2023-04-23T05:19:39;2.92;;;1.77;;
36829;SDS011;22767;47.328;9.640;2023-04-23T05:22:05;3.40;;;1.60;;
36829;SDS011;22767;47.328;9.640;2023-04-23T05:24:31;2.08;;;1.45;;
36829;SDS011;22767;47.328;9.640;2023-04-23T05:26:57;1.20;;;1.10;;
36829;SDS011;22767;47.328;9.640;2023-04-23T05:29:23;2.20;;;1.60;;
36829;SDS011;22767;47.328;9.640;2023-04-23T05:31:50;1.90;;;1.63;;
36829;SDS011;22767;47.328;9.640;2023-04-23T05:34:16;2.55;;;1.40;;
36829;SDS011;22767;47.328;9.640;2023-04-23T05:36:42;2.10;;;1.30;;
36829;SDS011;22767;47.328;9.640;2023-04-23T05:39:08;3.35;;;1.30;;
36829;SDS011;22767;47.328;9.640;2023-04-23T05:41:34;2.38;;;1.27;;
36829;SDS011;22767;47.328;9.640;2023-04-23T05:44:00;1.90;;;1.33;;
36829;SDS011;22767;47.328;9.640;2023-04-23T05:46:26;1.55;;;1.23;;
36829;SDS011;22767;47.328;9.640;2023-04-23T05:48:52;1.88;;;1.20;;
36829;SDS011;22767;47.328;9.640;2023-04-23T05:51:18;2.47;;;1.13;;
36829;SDS011;22767;47.328;9.640;2023-04-23T05:53:45;2.67;;;1.30;;
36829;SDS011;22767;47.328;9.640;2023-04-23T05:56:18;1.23;;;1.00;;
36829;SDS011;22767;47.328;9.640;2023-04-23T05:58:45;1.45;;;1.05;;
36829;SDS011;22767;47.328;9.640;2023-04-23T06:01:11;1.73;;;0.80;;
36829;SDS011;22767;47.328;9.640;2023-04-23T06:03:37;2.78;;;1.13;;
36829;SDS011;22767;47.328;9.640;2023-04-23T06:06:06;1.95;;;1.27;;
36829;SDS011;22767;47.328;9.640;2023-04-23T06:08:32;2.28;;;0.90;;
36829;SDS011;22767;47.328;9.640;2023-04-23T06:10:58;1.48;;;1.38;;
36829;SDS011;22767;47.328;9.640;2023-04-23T06:13:25;1.17;;;1.10;;
36829;SDS011;22767;47.328;9.640;2023-04-23T06:15:52;2.33;;;1.02;;
36829;SDS011;22767;47.328;9.640;2023-04-23T06:18:18;1.45;;;1.20;;
36829;SDS011;22767;47.328;9.640;2023-04-23T06:20:44;2.08;;;1.25;;
36829;SDS011;22767;47.328;9.640;2023-04-23T06:23:12;2.15;;;1.40;;
36829;SDS011;22767;47.328;9.640;2023-04-23T06:25:38;1.00;;;0.90;;
36829;SDS011;22767;47.328;9.640;2023-04-23T06:28:04;1.92;;;1.30;;
36829;SDS011;22767;47.328;9.640;2023-04-23T06:30:37;2.10;;;1.20;;
36829;SDS011;22767;47.328;9.640;2023-04-23T06:33:10;2.08;;;1.52;;
36829;SDS011;22767;47.328;9.640;2023-04-23T06:35:36;2.85;;;1.80;;
36829;SDS011;22767;47.328;9.640;2023-04-23T06:38:02;1.73;;;1.50;;
36829;SDS011;22767;47.328;9.640;2023-04-23T06:40:28;2.45;;;1.30;;
36829;SDS011;22767;47.328;9.640;2023-04-23T06:42:54;1.67;;;1.42;;
36829;SDS011;22767;47.328;9.640;2023-04-23T06:45:21;4.25;;;1.50;;
36829;SDS011;22767;47.328;9.640;2023-04-23T06:47:47;2.53;;;1.48;;
36829;SDS011;22767;47.328;9.640;2023-04-23T06:50:14;3.10;;;1.40;;
36829;SDS011;22767;47.328;9.640;2023-04-23T06:52:40;3.22;;;1.50;;
36829;SDS011;22767;47.328;9.640;2023-04-23T06:55:06;2.75;;;1.35;;
36829;SDS011;22767;47.328;9.640;2023-04-23T06:57:32;1.30;;;1.20;;
36829;SDS011;22767;47.328;9.640;2023-04-23T06:59:59;1.60;;;1.45;;
36829;SDS011;22767;47.328;9.640;2023-04-23T07:02:25;2.13;;;1.70;;
36829;SDS011;22767;47.328;9.640;2023-04-23T07:04:58;4.38;;;1.98;;
36829;SDS011;22767;47.328;9.640;2023-04-23T07:07:31;3.50;;;1.77;;
36829;SDS011;22767;47.328;9.640;2023-04-23T07:09:58;6.35;;;1.90;;
36829;SDS011;22767;47.328;9.640;2023-04-23T07:12:24;5.82;;;1.85;;
36829;SDS011;22767;47.328;9.640;2023-04-23T07:14:50;3.35;;;1.73;;
36829;SDS011;22767;47.328;9.640;2023-04-23T07:17:18;2.40;;;1.50;;
36829;SDS011;22767;47.328;9.640;2023-04-23T07:19:44;1.83;;;1.70;;
36829;SDS011;22767;47.328;9.640;2023-04-23T07:22:10;2.90;;;1.48;;
36829;SDS011;22767;47.328;9.640;2023-04-23T07:24:36;2.40;;;1.77;;
36829;SDS011;22767;47.328;9.640;2023-04-23T07:27:02;1.40;;;1.30;;
36829;SDS011;22767;47.328;9.640;2023-04-23T07:29:28;2.40;;;1.98;;
36829;SDS011;22767;47.328;9.640;2023-04-23T07:31:55;2.25;;;2.05;;
36829;SDS011;22767;47.328;9.640;2023-04-23T07:34:21;2.83;;;2.10;;
36829;SDS011;22767;47.328;9.640;2023-04-23T07:36:47;4.07;;;2.10;;
36829;SDS011;22767;47.328;9.640;2023-04-23T07:39:13;2.20;;;1.50;;
36829;SDS011;22767;47.328;9.640;2023-04-23T07:41:39;1.67;;;1.58;;
36829;SDS011;22767;47.328;9.640;2023-04-23T07:44:05;1.98;;;1.77;;
36829;SDS011;22767;47.328;9.640;2023-04-23T07:46:31;2.38;;;1.90;;
36829;SDS011;22767;47.328;9.640;2023-04-23T07:48:57;1.73;;;1.50;;
36829;SDS011;22767;47.328;9.640;2023-04-23T07:51:24;2.53;;;1.90;;
36829;SDS011;22767;47.328;9.640;2023-04-23T07:53:57;2.33;;;1.83;;
36829;SDS011;22767;47.328;9.640;2023-04-23T07:56:23;2.63;;;1.90;;
36829;SDS011;22767;47.328;9.640;2023-04-23T07:58:49;4.63;;;2.30;;
36829;SDS011;22767;47.328;9.640;2023-04-23T08:01:17;2.67;;;1.88;;
36829;SDS011;22767;47.328;9.640;2023-04-23T08:03:44;2.47;;;1.63;;
36829;SDS011;22767;47.328;9.640;2023-04-23T08:06:10;2.17;;;1.90;;
36829;SDS011;22767;47.328;9.640;2023-04-23T08:08:36;3.55;;;2.22;;
36829;SDS011;22767;47.328;9.640;2023-04-23T08:11:04;2.03;;;1.80;;
36829;SDS011;22767;47.328;9.640;2023-04-23T08:13:30;3.63;;;2.28;;
36829;SDS011;22767;47.328;9.640;2023-04-23T08:15:57;3.05;;;1.95;;
36829;SDS011;22767;47.328;9.640;2023-04-23T08:18:23;2.60;;;2.10;;
36829;SDS011;22767;47.328;9.640;2023-04-23T08:20:49;3.40;;;2.60;;
36829;SDS011;22767;47.328;9.640;2023-04-23T08:23:16;4.55;;;3.60;;
36829;SDS011;22767;47.328;9.640;2023-04-23T08:25:42;2.38;;;1.88;;
36829;SDS011;22767;47.328;9.640;2023-04-23T08:28:08;2.83;;;1.70;;
36829;SDS011;22767;47.328;9.640;2023-04-23T08:30:34;3.67;;;2.90;;
36829;SDS011;22767;47.328;9.640;2023-04-23T08:33:07;3.08;;;2.45;;
36829;SDS011;22767;47.328;9.640;2023-04-23T08:35:33;3.08;;;2.30;;
36829;SDS011;22767;47.328;9.640;2023-04-23T08:37:59;1.98;;;1.77;;
36829;SDS011;22767;47.328;9.640;2023-04-23T08:40:26;1.85;;;1.50;;
36829;SDS011;22767;47.328;9.640;2023-04-23T08:42:59;2.42;;;1.70;;
36829;SDS011;22767;47.328;9.640;2023-04-23T08:45:26;2.92;;;2.03;;
36829;SDS011;22767;47.328;9.640;2023-04-23T08:47:57;2.22;;;2.00;;
36829;SDS011;22767;47.328;9.640;2023-04-23T08:50:33;2.17;;;1.60;;
36829;SDS011;22767;47.328;9.640;2023-04-23T08:53:01;1.92;;;1.70;;
36829;SDS011;22767;47.328;9.640;2023-04-23T08:55:30;2.47;;;1.80;;
36829;SDS011;22767;47.328;9.640;2023-04-23T08:57:58;2.55;;;1.42;;
36829;SDS011;22767;47.328;9.640;2023-04-23T09:00:26;1.88;;;1.30;;
36829;SDS011;22767;47.328;9.640;2023-04-23T09:02:52;3.00;;;1.45;;
36829;SDS011;22767;47.328;9.640;2023-04-23T09:05:18;2.03;;;1.67;;
36829;SDS011;22767;47.328;9.640;2023-04-23T09:07:44;2.30;;;1.50;;
36829;SDS011;22767;47.328;9.640;2023-04-23T09:10:11;1.70;;;1.33;;
36829;SDS011;22767;47.328;9.640;2023-04-23T09:12:38;1.27;;;1.17;;
36829;SDS011;22767;47.328;9.640;2023-04-23T09:15:05;3.40;;;1.88;;
36829;SDS011;22767;47.328;9.640;2023-04-23T09:17:35;2.05;;;1.67;;
36829;SDS011;22767;47.328;9.640;2023-04-23T09:20:03;3.25;;;1.70;;
36829;SDS011;22767;47.328;9.640;2023-04-23T09:23:04;2.45;;;1.65;;
36829;SDS011;22767;47.328;9.640;2023-04-23T09:27:50;2.63;;;1.65;;
36829;SDS011;22767;47.328;9.640;2023-04-23T09:30:16;3.97;;;1.80;;
36829;SDS011;22767;47.328;9.640;2023-04-23T09:32:43;1.88;;;1.75;;
36829;SDS011;22767;47.328;9.640;2023-04-23T09:35:20;2.60;;;1.20;;
36829;SDS011;22767;47.328;9.640;2023-04-23T09:37:47;3.53;;;1.63;;
36829;SDS011;22767;47.328;9.640;2023-04-23T09:40:14;2.00;;;1.60;;
36829;SDS011;22767;47.328;9.640;2023-04-23T09:42:40;1.30;;;1.20;;
36829;SDS011;22767;47.328;9.640;2023-04-23T09:45:12;2.33;;;1.52;;
36829;SDS011;22767;47.328;9.640;2023-04-23T09:47:38;2.80;;;1.30;;
36829;SDS011;22767;47.328;9.640;2023-04-23T09:50:05;1.88;;;1.70;;
36829;SDS011;22767;47.328;9.640;2023-04-23T09:52:33;3.13;;;1.40;;
36829;SDS011;22767;47.328;9.640;2023-04-23T09:55:10;2.33;;;1.63;;
36829;SDS011;22767;47.328;9.640;2023-04-23T09:57:36;2.72;;;1.70;;
36829;SDS011;22767;47.328;9.640;2023-04-23T10:00:16;1.90;;;1.20;;
36829;SDS011;22767;47.328;9.640;2023-04-23T10:02:46;3.05;;;1.15;;
36829;SDS011;22767;47.328;9.640;2023-04-23T10:05:16;2.17;;;1.13;;
36829;SDS011;22767;47.328;9.640;2023-04-23T10:07:43;2.25;;;1.45;;
36829;SDS011;22767;47.328;9.640;2023-04-23T10:10:11;2.22;;;1.58;;
36829;SDS011;22767;47.328;9.640;2023-04-23T10:12:37;3.00;;;1.52;;
36829;SDS011;22767;47.328;9.640;2023-04-23T10:15:03;1.55;;;1.20;;
36829;SDS011;22767;47.328;9.640;2023-04-23T10:17:29;1.80;;;1.25;;
36829;SDS011;22767;47.328;9.640;2023-04-23T10:19:56;2.25;;;1.65;;
36829;SDS011;22767;47.328;9.640;2023-04-23T10:22:23;2.53;;;1.30;;
36829;SDS011;22767;47.328;9.640;2023-04-23T10:24:51;1.05;;;0.95;;
36829;SDS011;22767;47.328;9.640;2023-04-23T10:27:20;1.63;;;1.02;;
36829;SDS011;22767;47.328;9.640;2023-04-23T10:29:47;1.42;;;1.15;;
36829;SDS011;22767;47.328;9.640;2023-04-23T10:32:20;3.25;;;1.05;;
36829;SDS011;22767;47.328;9.640;2023-04-23T10:34:46;2.08;;;0.82;;
36829;SDS011;22767;47.328;9.640;2023-04-23T10:37:13;2.35;;;1.00;;
36829;SDS011;22767;47.328;9.640;2023-04-23T10:39:42;0.90;;;0.80;;
36829;SDS011;22767;47.328;9.640;2023-04-23T10:42:08;1.23;;;0.80;;
36829;SDS011;22767;47.328;9.640;2023-04-23T10:44:38;1.10;;;0.70;;
36829;SDS011;22767;47.328;9.640;2023-04-23T10:47:10;0.80;;;0.80;;
36829;SDS011;22767;47.328;9.640;2023-04-23T10:49:36;0.70;;;0.65;;
36829;SDS011;22767;47.328;9.640;2023-04-23T10:52:06;1.98;;;0.80;;
36829;SDS011;22767;47.328;9.640;2023-04-23T10:54:40;1.25;;;0.85;;
36829;SDS011;22767;47.328;9.640;2023-04-23T10:57:06;0.60;;;0.60;;
36829;SDS011;22767;47.328;9.640;2023-04-23T10:59:33;2.10;;;0.80;;
36829;SDS011;22767;47.328;9.640;2023-04-23T11:02:10;1.58;;;0.70;;
36829;SDS011;22767;47.328;9.640;2023-04-23T11:04:46;1.73;;;0.93;;
36829;SDS011;22767;47.328;9.640;2023-04-23T11:07:17;1.75;;;0.82;;
36829;SDS011;22767;47.328;9.640;2023-04-23T11:09:46;1.27;;;0.80;;
36829;SDS011;22767;47.328;9.640;2023-04-23T11:12:34;1.73;;;0.70;;
36829;SDS011;22767;47.328;9.640;2023-04-23T11:15:12;3.33;;;0.80;;
36829;SDS011;22767;47.328;9.640;2023-04-23T11:20:13;1.05;;;0.90;;
36829;SDS011;22767;47.328;9.640;2023-04-23T11:25:24;1.33;;;0.75;;
36829;SDS011;22767;47.328;9.640;2023-04-23T11:27:51;1.35;;;1.15;;
36829;SDS011;22767;47.328;9.640;2023-04-23T11:30:25;1.38;;;0.80;;
36829;SDS011;22767;47.328;9.640;2023-04-23T11:32:58;0.98;;;0.80;;
36829;SDS011;22767;47.328;9.640;2023-04-23T11:35:25;2.20;;;1.10;;
36829;SDS011;22767;47.328;9.640;2023-04-23T11:37:52;2.30;;;0.90;;
36829;SDS011;22767;47.328;9.640;2023-04-23T11:40:19;2.47;;;1.10;;
36829;SDS011;22767;47.328;9.640;2023-04-23T11:42:46;2.40;;;1.23;;
36829;SDS011;22767;47.328;9.640;2023-04-23T11:45:31;1.75;;;1.08;;
36829;SDS011;22767;47.328;9.640;2023-04-23T11:47:57;1.13;;;1.02;;
36829;SDS011;22767;47.328;9.640;2023-04-23T11:52:51;1.55;;;1.10;;
36829;SDS011;22767;47.328;9.640;2023-04-23T11:55:17;1.70;;;1.02;;
36829;SDS011;22767;47.328;9.640;2023-04-23T11:57:45;1.52;;;0.80;;
36829;SDS011;22767;47.328;9.640;2023-04-23T12:00:15;1.45;;;0.90;;
36829;SDS011;22767;47.328;9.640;2023-04-23T12:03:01;1.48;;;0.80;;
36829;SDS011;22767;47.328;9.640;2023-04-23T12:05:35;2.55;;;1.23;;
36829;SDS011;22767;47.328;9.640;2023-04-23T12:10:58;1.40;;;0.70;;
36829;SDS011;22767;47.328;9.640;2023-04-23T12:13:23;2.33;;;0.95;;
36829;SDS011;22767;47.328;9.640;2023-04-23T12:15:52;0.85;;;0.70;;
36829;SDS011;22767;47.328;9.640;2023-04-23T12:18:25;2.97;;;1.02;;
36829;SDS011;22767;47.328;9.640;2023-04-23T12:20:51;2.17;;;1.10;;
36829;SDS011;22767;47.328;9.640;2023-04-23T12:23:17;1.73;;;0.93;;
36829;SDS011;22767;47.328;9.640;2023-04-23T12:25:43;0.90;;;0.77;;
36829;SDS011;22767;47.328;9.640;2023-04-23T12:28:10;1.45;;;1.00;;
36829;SDS011;22767;47.328;9.640;2023-04-23T12:30:41;2.13;;;1.10;;
36829;SDS011;22767;47.328;9.640;2023-04-23T12:33:15;2.30;;;1.73;;
36829;SDS011;22767;47.328;9.640;2023-04-23T12:35:50;1.38;;;1.00;;
36829;SDS011;22767;47.328;9.640;2023-04-23T12:38:24;2.35;;;1.38;;
36829;SDS011;22767;47.328;9.640;2023-04-23T12:40:54;2.40;;;1.17;;
36829;SDS011;22767;47.328;9.640;2023-04-23T12:43:21;2.08;;;1.10;;
36829;SDS011;22767;47.328;9.640;2023-04-23T12:45:47;2.50;;;1.30;;
36829;SDS011;22767;47.328;9.640;2023-04-23T12:48:13;1.42;;;0.80;;
36829;SDS011;22767;47.328;9.640;2023-04-23T12:50:40;2.45;;;0.90;;
36829;SDS011;22767;47.328;9.640;2023-04-23T12:53:06;1.30;;;0.85;;
36829;SDS011;22767;47.328;9.640;2023-04-23T12:55:32;2.08;;;0.90;;
36829;SDS011;22767;47.328;9.640;2023-04-23T12:58:05;1.00;;;0.80;;
36829;SDS011;22767;47.328;9.640;2023-04-23T13:00:31;0.93;;;0.85;;
36829;SDS011;22767;47.328;9.640;2023-04-23T13:02:57;1.35;;;1.00;;
36829;SDS011;22767;47.328;9.640;2023-04-23T13:05:23;3.08;;;1.05;;
36829;SDS011;22767;47.328;9.640;2023-04-23T13:07:49;1.20;;;1.10;;
36829;SDS011;22767;47.328;9.640;2023-04-23T13:10:17;1.60;;;0.93;;
36829;SDS011;22767;47.328;9.640;2023-04-23T13:12:43;2.97;;;1.15;;
36829;SDS011;22767;47.328;9.640;2023-04-23T13:15:10;1.23;;;1.00;;
36829;SDS011;22767;47.328;9.640;2023-04-23T13:17:39;0.93;;;0.93;;
36829;SDS011;22767;47.328;9.640;2023-04-23T13:20:05;1.75;;;0.75;;
36829;SDS011;22767;47.328;9.640;2023-04-23T13:22:32;1.02;;;0.90;;
36829;SDS011;22767;47.328;9.640;2023-04-23T13:24:59;1.13;;;0.80;;
36829;SDS011;22767;47.328;9.640;2023-04-23T13:27:26;1.70;;;1.30;;
36829;SDS011;22767;47.328;9.640;2023-04-23T13:29:58;1.10;;;0.90;;
36829;SDS011;22767;47.328;9.640;2023-04-23T13:32:31;1.20;;;1.10;;
36829;SDS011;22767;47.328;9.640;2023-04-23T13:34:57;2.10;;;1.20;;
36829;SDS011;22767;47.328;9.640;2023-04-23T13:37:28;1.98;;;0.90;;
36829;SDS011;22767;47.328;9.640;2023-04-23T13:39:55;1.98;;;1.10;;
36829;SDS011;22767;47.328;9.640;2023-04-23T13:42:21;2.50;;;0.82;;
36829;SDS011;22767;47.328;9.640;2023-04-23T13:44:47;3.10;;;0.90;;
36829;SDS011;22767;47.328;9.640;2023-04-23T13:47:13;3.42;;;0.80;;
36829;SDS011;22767;47.328;9.640;2023-04-23T13:49:39;1.95;;;1.27;;
36829;SDS011;22767;47.328;9.640;2023-04-23T13:52:06;1.83;;;1.17;;
36829;SDS011;22767;47.328;9.640;2023-04-23T13:54:33;1.10;;;0.80;;
36829;SDS011;22767;47.328;9.640;2023-04-23T13:56:59;1.17;;;0.77;;
36829;SDS011;22767;47.328;9.640;2023-04-23T13:59:26;1.42;;;1.00;;
36829;SDS011;22767;47.328;9.640;2023-04-23T14:01:52;1.67;;;0.65;;
36829;SDS011;22767;47.328;9.640;2023-04-23T14:04:19;1.00;;;0.65;;
36829;SDS011;22767;47.328;9.640;2023-04-23T14:06:48;1.48;;;1.00;;
36829;SDS011;22767;47.328;9.640;2023-04-23T14:09:20;2.85;;;1.13;;
36829;SDS011;22767;47.328;9.640;2023-04-23T14:11:53;3.58;;;1.63;;
36829;SDS011;22767;47.328;9.640;2023-04-23T14:14:20;1.10;;;1.00;;
36829;SDS011;22767;47.328;9.640;2023-04-23T14:16:46;1.83;;;0.90;;
36829;SDS011;22767;47.328;9.640;2023-04-23T14:19:12;2.70;;;0.98;;
36829;SDS011;22767;47.328;9.640;2023-04-23T14:21:38;1.13;;;0.93;;
36829;SDS011;22767;47.328;9.640;2023-04-23T14:24:21;2.53;;;0.90;;
36829;SDS011;22767;47.328;9.640;2023-04-23T14:26:48;2.28;;;0.80;;
36829;SDS011;22767;47.328;9.640;2023-04-23T14:29:34;2.67;;;1.15;;
36829;SDS011;22767;47.328;9.640;2023-04-23T14:32:01;2.22;;;0.90;;
36829;SDS011;22767;47.328;9.640;2023-04-23T14:34:27;1.52;;;1.10;;
36829;SDS011;22767;47.328;9.640;2023-04-23T14:36:54;2.05;;;1.10;;
36829;SDS011;22767;47.328;9.640;2023-04-23T14:39:23;1.65;;;0.90;;
36829;SDS011;22767;47.328;9.640;2023-04-23T14:41:50;1.50;;;1.05;;
36829;SDS011;22767;47.328;9.640;2023-04-23T14:44:23;2.47;;;1.13;;
36829;SDS011;22767;47.328;9.640;2023-04-23T14:46:53;3.17;;;1.20;;
36829;SDS011;22767;47.328;9.640;2023-04-23T14:49:19;1.80;;;1.17;;
36829;SDS011;22767;47.328;9.640;2023-04-23T14:51:46;2.42;;;1.30;;
36829;SDS011;22767;47.328;9.640;2023-04-23T14:54:14;1.33;;;1.10;;
36829;SDS011;22767;47.328;9.640;2023-04-23T14:56:40;1.08;;;0.80;;
36829;SDS011;22767;47.328;9.640;2023-04-23T14:59:07;1.55;;;0.90;;
36829;SDS011;22767;47.328;9.640;2023-04-23T15:01:33;2.15;;;1.05;;
36829;SDS011;22767;47.328;9.640;2023-04-23T15:03:59;1.83;;;1.00;;
36829;SDS011;22767;47.328;9.640;2023-04-23T15:06:25;3.38;;;1.00;;